sensor_id;sensor_type;location;lat;lon;timestamp;pressure;altitude;pressure_sealevel;temperature;humidity
41044;BME280;51680;49.806;18.774;2022-07-15T00:01:26;97221.34;;;19.94;84.38
41044;BME280;51680;49.806;18.774;2022-07-15T00:04:29;97216.69;;;19.88;84.40
41044;BME280;51680;49.806;18.774;2022-07-15T00:07:32;97206.03;;;19.80;84.83
41044;BME280;51680;49.806;18.774;2022-07-15T00:10:35;97212.28;;;19.63;86.13
41044;BME280;51680;49.806;18.774;2022-07-15T00:13:36;97205.22;;;19.46;86.97
41044;BME280;51680;49.806;18.774;2022-07-15T00:16:38;97212.78;;;19.41;87.22
41044;BME280;51680;49.806;18.774;2022-07-15T00:19:40;97210.44;;;19.38;87.04
41044;BME280;51680;49.806;18.774;2022-07-15T00:22:44;97218.59;;;19.44;86.70
41044;BME280;51680;49.806;18.774;2022-07-15T00:25:46;97221.75;;;19.48;85.58
41044;BME280;51680;49.806;18.774;2022-07-15T00:28:48;97224.31;;;19.32;87.29
41044;BME280;51680;49.806;18.774;2022-07-15T00:31:49;97211.75;;;19.34;86.57
41044;BME280;51680;49.806;18.774;2022-07-15T00:34:51;97214.94;;;19.37;86.16
41044;BME280;51680;49.806;18.774;2022-07-15T00:37:54;97216.44;;;19.40;86.27
41044;BME280;51680;49.806;18.774;2022-07-15T00:40:56;97218.25;;;19.39;85.92
41044;BME280;51680;49.806;18.774;2022-07-15T00:43:59;97214.94;;;19.37;86.23
41044;BME280;51680;49.806;18.774;2022-07-15T00:47:01;97217.66;;;19.28;87.01
41044;BME280;51680;49.806;18.774;2022-07-15T00:50:04;97212.38;;;19.28;86.83
41044;BME280;51680;49.806;18.774;2022-07-15T00:53:12;97218.00;;;19.25;87.40
41044;BME280;51680;49.806;18.774;2022-07-15T00:56:15;97218.03;;;19.33;86.07
41044;BME280;51680;49.806;18.774;2022-07-15T00:59:19;97214.50;;;19.50;85.08
41044;BME280;51680;49.806;18.774;2022-07-15T01:02:22;97223.16;;;19.60;88.65
41044;BME280;51680;49.806;18.774;2022-07-15T01:05:25;97228.22;;;19.79;83.20
41044;BME280;51680;49.806;18.774;2022-07-15T01:08:29;97232.25;;;19.91;82.79
41044;BME280;51680;49.806;18.774;2022-07-15T01:11:31;97229.31;;;20.02;82.35
41044;BME280;51680;49.806;18.774;2022-07-15T01:14:35;97233.88;;;20.17;81.73
41044;BME280;51680;49.806;18.774;2022-07-15T01:17:38;97242.34;;;20.29;81.30
41044;BME280;51680;49.806;18.774;2022-07-15T01:20:44;97246.69;;;20.38;81.24
41044;BME280;51680;49.806;18.774;2022-07-15T01:23:47;97255.69;;;20.45;81.05
41044;BME280;51680;49.806;18.774;2022-07-15T01:27:02;97242.75;;;20.50;80.81
41044;BME280;51680;49.806;18.774;2022-07-15T01:30:22;97249.56;;;20.52;80.61
41044;BME280;51680;49.806;18.774;2022-07-15T01:33:25;97243.09;;;20.55;80.34
41044;BME280;51680;49.806;18.774;2022-07-15T01:36:29;97250.91;;;20.56;80.27
41044;BME280;51680;49.806;18.774;2022-07-15T01:39:34;97251.06;;;20.55;80.26
41044;BME280;51680;49.806;18.774;2022-07-15T01:42:36;97261.31;;;20.50;80.47
41044;BME280;51680;49.806;18.774;2022-07-15T01:45:41;97255.00;;;20.43;80.79
41044;BME280;51680;49.806;18.774;2022-07-15T01:48:45;97255.44;;;20.30;81.13
41044;BME280;51680;49.806;18.774;2022-07-15T01:52:16;97261.38;;;20.16;81.37
41044;BME280;51680;49.806;18.774;2022-07-15T01:55:19;97265.22;;;19.96;82.27
41044;BME280;51680;49.806;18.774;2022-07-15T01:58:21;97266.69;;;19.91;82.13
41044;BME280;51680;49.806;18.774;2022-07-15T02:01:23;97269.97;;;19.85;82.70
41044;BME280;51680;49.806;18.774;2022-07-15T02:04:26;97276.56;;;19.81;82.60
41044;BME280;51680;49.806;18.774;2022-07-15T02:07:30;97274.91;;;19.80;82.60
41044;BME280;51680;49.806;18.774;2022-07-15T02:10:32;97278.41;;;19.80;82.52
41044;BME280;51680;49.806;18.774;2022-07-15T02:13:45;97284.53;;;19.81;82.35
41044;BME280;51680;49.806;18.774;2022-07-15T02:16:48;97279.91;;;19.83;82.59
41044;BME280;51680;49.806;18.774;2022-07-15T02:20:09;97290.81;;;19.80;82.71
41044;BME280;51680;49.806;18.774;2022-07-15T02:23:13;97292.84;;;19.86;81.89
41044;BME280;51680;49.806;18.774;2022-07-15T02:26:15;97303.50;;;19.94;81.77
41044;BME280;51680;49.806;18.774;2022-07-15T02:29:18;97304.50;;;20.01;81.51
41044;BME280;51680;49.806;18.774;2022-07-15T02:32:20;97310.19;;;20.06;81.83
41044;BME280;51680;49.806;18.774;2022-07-15T02:35:22;97307.22;;;20.09;81.61
41044;BME280;51680;49.806;18.774;2022-07-15T02:38:25;97307.94;;;20.11;81.78
41044;BME280;51680;49.806;18.774;2022-07-15T02:41:28;97311.53;;;20.10;81.60
41044;BME280;51680;49.806;18.774;2022-07-15T02:44:35;97303.44;;;20.11;81.18
41044;BME280;51680;49.806;18.774;2022-07-15T02:47:37;97317.19;;;20.15;81.08
41044;BME280;51680;49.806;18.774;2022-07-15T02:50:39;97323.19;;;20.17;81.00
41044;BME280;51680;49.806;18.774;2022-07-15T02:53:42;97331.50;;;20.22;81.02
41044;BME280;51680;49.806;18.774;2022-07-15T02:56:49;97323.91;;;20.27;81.24
41044;BME280;51680;49.806;18.774;2022-07-15T02:59:51;97329.19;;;20.27;81.28
41044;BME280;51680;49.806;18.774;2022-07-15T03:02:54;97337.81;;;20.29;81.14
41044;BME280;51680;49.806;18.774;2022-07-15T03:05:56;97333.84;;;20.33;81.06
41044;BME280;51680;49.806;18.774;2022-07-15T03:09:02;97337.19;;;20.35;81.15
41044;BME280;51680;49.806;18.774;2022-07-15T03:12:03;97340.09;;;20.24;83.86
41044;BME280;51680;49.806;18.774;2022-07-15T03:15:07;97344.81;;;20.30;80.93
41044;BME280;51680;49.806;18.774;2022-07-15T03:18:10;97342.50;;;20.35;80.67
41044;BME280;51680;49.806;18.774;2022-07-15T03:21:12;97340.00;;;20.33;80.82
41044;BME280;51680;49.806;18.774;2022-07-15T03:24:16;97355.56;;;20.36;80.75
41044;BME280;51680;49.806;18.774;2022-07-15T03:27:18;97361.72;;;20.37;80.40
41044;BME280;51680;49.806;18.774;2022-07-15T03:30:20;97363.06;;;20.41;80.25
41044;BME280;51680;49.806;18.774;2022-07-15T03:33:23;97374.69;;;20.40;80.11
41044;BME280;51680;49.806;18.774;2022-07-15T03:36:25;97381.13;;;20.37;79.88
41044;BME280;51680;49.806;18.774;2022-07-15T03:39:29;97386.25;;;20.39;79.74
41044;BME280;51680;49.806;18.774;2022-07-15T03:42:32;97394.91;;;20.41;79.59
41044;BME280;51680;49.806;18.774;2022-07-15T03:45:34;97391.25;;;20.42;79.53
41044;BME280;51680;49.806;18.774;2022-07-15T03:48:36;97400.88;;;20.43;79.24
41044;BME280;51680;49.806;18.774;2022-07-15T03:51:38;97406.16;;;20.43;79.08
41044;BME280;51680;49.806;18.774;2022-07-15T03:54:41;97411.63;;;20.41;79.17
41044;BME280;51680;49.806;18.774;2022-07-15T03:57:43;97412.78;;;20.39;78.78
41044;BME280;51680;49.806;18.774;2022-07-15T04:00:45;97407.81;;;20.36;78.70
41044;BME280;51680;49.806;18.774;2022-07-15T04:03:47;97421.06;;;20.36;78.67
41044;BME280;51680;49.806;18.774;2022-07-15T04:06:49;97426.16;;;20.29;78.73
41044;BME280;51680;49.806;18.774;2022-07-15T04:09:52;97423.66;;;20.28;78.35
41044;BME280;51680;49.806;18.774;2022-07-15T04:12:54;97432.91;;;20.24;78.24
41044;BME280;51680;49.806;18.774;2022-07-15T04:15:56;97429.75;;;20.20;78.27
41044;BME280;51680;49.806;18.774;2022-07-15T04:18:58;97440.84;;;20.16;78.02
41044;BME280;51680;49.806;18.774;2022-07-15T04:22:00;97444.09;;;20.10;78.10
41044;BME280;51680;49.806;18.774;2022-07-15T04:25:08;97444.38;;;20.07;78.16
41044;BME280;51680;49.806;18.774;2022-07-15T04:28:11;97457.78;;;20.05;78.04
41044;BME280;51680;49.806;18.774;2022-07-15T04:31:14;97457.56;;;19.99;78.08
41044;BME280;51680;49.806;18.774;2022-07-15T04:34:25;97471.44;;;19.93;78.07
41044;BME280;51680;49.806;18.774;2022-07-15T04:37:27;97478.69;;;19.91;78.04
41044;BME280;51680;49.806;18.774;2022-07-15T04:40:32;97491.28;;;19.89;77.74
41044;BME280;51680;49.806;18.774;2022-07-15T04:43:36;97495.97;;;19.95;77.61
41044;BME280;51680;49.806;18.774;2022-07-15T04:46:38;97499.69;;;20.02;77.42
41044;BME280;51680;49.806;18.774;2022-07-15T04:50:01;97504.13;;;20.19;76.77
41044;BME280;51680;49.806;18.774;2022-07-15T04:53:21;97503.78;;;20.39;75.51
41044;BME280;51680;49.806;18.774;2022-07-15T04:56:25;97505.34;;;20.75;74.97
41044;BME280;51680;49.806;18.774;2022-07-15T04:59:37;97508.75;;;21.27;74.48
41044;BME280;51680;49.806;18.774;2022-07-15T05:02:42;97512.38;;;21.75;73.16
41044;BME280;51680;49.806;18.774;2022-07-15T05:05:44;97523.88;;;22.24;72.50
41044;BME280;51680;49.806;18.774;2022-07-15T05:08:50;97520.53;;;22.54;70.24
41044;BME280;51680;49.806;18.774;2022-07-15T05:11:54;97517.81;;;22.86;69.49
41044;BME280;51680;49.806;18.774;2022-07-15T05:14:56;97517.22;;;23.22;68.11
41044;BME280;51680;49.806;18.774;2022-07-15T05:17:58;97530.22;;;23.56;67.64
41044;BME280;51680;49.806;18.774;2022-07-15T05:21:01;97522.00;;;23.96;66.43
41044;BME280;51680;49.806;18.774;2022-07-15T05:24:21;97538.69;;;24.35;64.93
41044;BME280;51680;49.806;18.774;2022-07-15T05:27:24;97538.72;;;24.72;64.20
41044;BME280;51680;49.806;18.774;2022-07-15T05:30:26;97544.56;;;24.90;63.56
41044;BME280;51680;49.806;18.774;2022-07-15T05:33:33;97539.47;;;25.09;62.63
41044;BME280;51680;49.806;18.774;2022-07-15T05:36:39;97535.31;;;25.07;62.21
41044;BME280;51680;49.806;18.774;2022-07-15T05:39:41;97544.78;;;24.66;63.02
41044;BME280;51680;49.806;18.774;2022-07-15T05:43:00;97555.88;;;24.77;62.62
41044;BME280;51680;49.806;18.774;2022-07-15T05:46:07;97555.16;;;25.12;62.08
41044;BME280;51680;49.806;18.774;2022-07-15T05:49:18;97559.75;;;25.47;60.50
41044;BME280;51680;49.806;18.774;2022-07-15T05:52:21;97561.34;;;25.77;59.29
41044;BME280;51680;49.806;18.774;2022-07-15T05:55:23;97574.50;;;26.08;58.83
41044;BME280;51680;49.806;18.774;2022-07-15T05:58:26;97573.63;;;26.43;57.57
41044;BME280;51680;49.806;18.774;2022-07-15T06:01:29;97575.44;;;26.57;57.33
41044;BME280;51680;49.806;18.774;2022-07-15T06:04:31;97573.56;;;26.78;56.79
41044;BME280;51680;49.806;18.774;2022-07-15T06:07:33;97574.53;;;26.98;55.39
41044;BME280;51680;49.806;18.774;2022-07-15T06:10:37;97581.41;;;27.14;54.97
41044;BME280;51680;49.806;18.774;2022-07-15T06:13:40;97586.75;;;27.35;53.89
41044;BME280;51680;49.806;18.774;2022-07-15T06:16:43;97581.84;;;27.45;52.65
41044;BME280;51680;49.806;18.774;2022-07-15T06:19:45;97585.63;;;27.57;52.43
41044;BME280;51680;49.806;18.774;2022-07-15T06:22:47;97584.22;;;27.67;50.88
41044;BME280;51680;49.806;18.774;2022-07-15T06:25:49;97583.00;;;27.70;51.39
41044;BME280;51680;49.806;18.774;2022-07-15T06:28:52;97588.13;;;27.65;50.37
41044;BME280;51680;49.806;18.774;2022-07-15T06:31:55;97590.81;;;27.65;50.11
41044;BME280;51680;49.806;18.774;2022-07-15T06:34:57;97593.53;;;27.71;50.71
41044;BME280;51680;49.806;18.774;2022-07-15T06:37:58;97601.88;;;27.83;50.20
41044;BME280;51680;49.806;18.774;2022-07-15T06:41:00;97608.53;;;28.00;50.16
41044;BME280;51680;49.806;18.774;2022-07-15T06:44:04;97620.59;;;28.17;49.30
41044;BME280;51680;49.806;18.774;2022-07-15T06:47:15;97623.34;;;28.36;49.25
41044;BME280;51680;49.806;18.774;2022-07-15T06:50:17;97623.53;;;28.28;49.13
41044;BME280;51680;49.806;18.774;2022-07-15T06:53:20;97618.56;;;28.32;48.36
41044;BME280;51680;49.806;18.774;2022-07-15T06:56:22;97622.69;;;28.34;48.54
41044;BME280;51680;49.806;18.774;2022-07-15T06:59:25;97628.06;;;28.28;48.47
41044;BME280;51680;49.806;18.774;2022-07-15T07:02:46;97629.31;;;28.32;47.72
41044;BME280;51680;49.806;18.774;2022-07-15T07:05:48;97634.28;;;28.35;47.29
41044;BME280;51680;49.806;18.774;2022-07-15T07:08:49;97637.16;;;28.33;46.93
41044;BME280;51680;49.806;18.774;2022-07-15T07:12:05;97633.84;;;28.25;47.00
41044;BME280;51680;49.806;18.774;2022-07-15T07:15:09;97638.78;;;28.15;46.56
41044;BME280;51680;49.806;18.774;2022-07-15T07:18:11;97646.34;;;28.05;46.53
41044;BME280;51680;49.806;18.774;2022-07-15T07:21:13;97646.19;;;28.13;46.35
41044;BME280;51680;49.806;18.774;2022-07-15T07:24:15;97646.44;;;28.24;46.54
41044;BME280;51680;49.806;18.774;2022-07-15T07:27:17;97647.88;;;28.27;45.80
41044;BME280;51680;49.806;18.774;2022-07-15T07:30:21;97642.59;;;28.40;45.54
41044;BME280;51680;49.806;18.774;2022-07-15T07:33:22;97642.84;;;28.51;46.48
41044;BME280;51680;49.806;18.774;2022-07-15T07:36:25;97643.66;;;28.58;44.81
41044;BME280;51680;49.806;18.774;2022-07-15T07:39:27;97644.69;;;28.57;44.16
41044;BME280;51680;49.806;18.774;2022-07-15T07:42:30;97645.75;;;28.63;43.84
41044;BME280;51680;49.806;18.774;2022-07-15T07:45:33;97649.25;;;28.63;43.45
41044;BME280;51680;49.806;18.774;2022-07-15T07:48:37;97648.00;;;28.46;42.64
41044;BME280;51680;49.806;18.774;2022-07-15T07:51:39;97642.97;;;28.37;42.73
41044;BME280;51680;49.806;18.774;2022-07-15T07:54:41;97648.31;;;28.37;43.55
41044;BME280;51680;49.806;18.774;2022-07-15T07:57:48;97654.59;;;28.44;43.04
41044;BME280;51680;49.806;18.774;2022-07-15T08:00:51;97659.75;;;28.52;43.38
41044;BME280;51680;49.806;18.774;2022-07-15T08:03:53;97667.44;;;28.61;43.23
41044;BME280;51680;49.806;18.774;2022-07-15T08:06:55;97665.16;;;28.65;42.22
41044;BME280;51680;49.806;18.774;2022-07-15T08:10:16;97669.31;;;28.67;41.93
41044;BME280;51680;49.806;18.774;2022-07-15T08:13:20;97666.59;;;28.61;41.65
41044;BME280;51680;49.806;18.774;2022-07-15T08:16:23;97668.66;;;28.46;42.71
41044;BME280;51680;49.806;18.774;2022-07-15T08:19:26;97667.81;;;28.39;42.10
41044;BME280;51680;49.806;18.774;2022-07-15T08:22:28;97672.88;;;28.21;42.74
41044;BME280;51680;49.806;18.774;2022-07-15T08:25:31;97669.34;;;28.20;41.92
41044;BME280;51680;49.806;18.774;2022-07-15T08:28:33;97666.09;;;28.25;42.60
41044;BME280;51680;49.806;18.774;2022-07-15T08:31:36;97664.66;;;28.35;41.69
41044;BME280;51680;49.806;18.774;2022-07-15T08:34:56;97659.13;;;28.43;41.10
41044;BME280;51680;49.806;18.774;2022-07-15T08:37:59;97657.28;;;28.57;40.59
41044;BME280;51680;49.806;18.774;2022-07-15T08:41:05;97661.66;;;28.64;39.98
41044;BME280;51680;49.806;18.774;2022-07-15T08:44:07;97655.03;;;28.60;39.83
41044;BME280;51680;49.806;18.774;2022-07-15T08:47:10;97655.63;;;28.49;40.13
41044;BME280;51680;49.806;18.774;2022-07-15T08:50:14;97663.94;;;28.67;40.48
41044;BME280;51680;49.806;18.774;2022-07-15T08:53:17;97666.25;;;28.77;41.19
41044;BME280;51680;49.806;18.774;2022-07-15T08:56:19;97673.19;;;28.45;41.13
41044;BME280;51680;49.806;18.774;2022-07-15T08:59:20;97667.38;;;28.42;40.80
41044;BME280;51680;49.806;18.774;2022-07-15T09:02:24;97662.91;;;28.55;40.51
41044;BME280;51680;49.806;18.774;2022-07-15T09:05:28;97666.59;;;28.61;40.33
41044;BME280;51680;49.806;18.774;2022-07-15T09:08:30;97668.94;;;28.77;40.35
41044;BME280;51680;49.806;18.774;2022-07-15T09:11:32;97667.84;;;28.65;40.67
41044;BME280;51680;49.806;18.774;2022-07-15T09:14:35;97680.63;;;28.43;40.59
41044;BME280;51680;49.806;18.774;2022-07-15T09:17:38;97678.03;;;28.16;40.83
41044;BME280;51680;49.806;18.774;2022-07-15T09:20:41;97674.63;;;27.94;41.23
41044;BME280;51680;49.806;18.774;2022-07-15T09:23:44;97671.38;;;27.71;41.07
41044;BME280;51680;49.806;18.774;2022-07-15T09:26:46;97667.47;;;27.74;41.04
41044;BME280;51680;49.806;18.774;2022-07-15T09:29:48;97662.66;;;27.97;40.19
41044;BME280;51680;49.806;18.774;2022-07-15T09:33:18;97656.38;;;27.83;40.35
41044;BME280;51680;49.806;18.774;2022-07-15T09:36:41;97671.84;;;28.22;40.55
41044;BME280;51680;49.806;18.774;2022-07-15T09:39:53;97661.06;;;28.15;39.18
41044;BME280;51680;49.806;18.774;2022-07-15T09:43:03;97666.47;;;28.22;39.02
41044;BME280;51680;49.806;18.774;2022-07-15T09:46:06;97666.81;;;27.99;39.95
41044;BME280;51680;49.806;18.774;2022-07-15T09:49:09;97660.34;;;27.60;39.95
41044;BME280;51680;49.806;18.774;2022-07-15T09:52:12;97662.44;;;27.58;40.17
41044;BME280;51680;49.806;18.774;2022-07-15T09:55:15;97658.28;;;27.89;40.41
41044;BME280;51680;49.806;18.774;2022-07-15T09:58:17;97652.00;;;28.23;39.13
41044;BME280;51680;49.806;18.774;2022-07-15T10:01:20;97655.22;;;28.52;39.49
41044;BME280;51680;49.806;18.774;2022-07-15T10:04:24;97652.78;;;28.90;39.20
41044;BME280;51680;49.806;18.774;2022-07-15T10:07:27;97648.06;;;29.18;38.17
41044;BME280;51680;49.806;18.774;2022-07-15T10:10:29;97642.88;;;28.84;37.91
41044;BME280;51680;49.806;18.774;2022-07-15T10:13:42;97647.53;;;28.43;37.67
41044;BME280;51680;49.806;18.774;2022-07-15T10:17:01;97644.38;;;28.26;36.84
41044;BME280;51680;49.806;18.774;2022-07-15T10:20:43;97647.22;;;28.12;37.90
41044;BME280;51680;49.806;18.774;2022-07-15T10:27:29;97641.56;;;27.94;38.17
41044;BME280;51680;49.806;18.774;2022-07-15T10:30:32;97646.81;;;28.08;39.32
41044;BME280;51680;49.806;18.774;2022-07-15T10:33:34;97644.03;;;27.89;38.99
41044;BME280;51680;49.806;18.774;2022-07-15T10:36:41;97643.53;;;27.79;37.90
41044;BME280;51680;49.806;18.774;2022-07-15T10:39:56;97656.03;;;27.59;39.12
41044;BME280;51680;49.806;18.774;2022-07-15T10:43:06;97670.56;;;27.43;39.35
41044;BME280;51680;49.806;18.774;2022-07-15T10:46:22;97656.31;;;27.36;38.83
41044;BME280;51680;49.806;18.774;2022-07-15T10:49:29;97651.13;;;27.35;38.86
41044;BME280;51680;49.806;18.774;2022-07-15T10:52:33;97650.84;;;27.23;39.12
41044;BME280;51680;49.806;18.774;2022-07-15T10:55:35;97662.88;;;27.13;39.24
41044;BME280;51680;49.806;18.774;2022-07-15T10:58:36;97646.94;;;27.26;38.98
41044;BME280;51680;49.806;18.774;2022-07-15T11:01:40;97653.41;;;27.38;38.70
41044;BME280;51680;49.806;18.774;2022-07-15T11:04:42;97661.19;;;27.26;39.72
41044;BME280;51680;49.806;18.774;2022-07-15T11:07:46;97652.47;;;27.52;39.30
41044;BME280;51680;49.806;18.774;2022-07-15T11:10:47;97654.56;;;27.56;38.77
41044;BME280;51680;49.806;18.774;2022-07-15T11:13:50;97641.44;;;27.68;38.16
41044;BME280;51680;49.806;18.774;2022-07-15T11:16:55;97654.28;;;27.79;38.45
41044;BME280;51680;49.806;18.774;2022-07-15T11:19:59;97643.44;;;28.00;39.02
41044;BME280;51680;49.806;18.774;2022-07-15T11:23:03;97653.22;;;28.07;38.42
41044;BME280;51680;49.806;18.774;2022-07-15T11:26:07;97635.09;;;28.22;38.01
41044;BME280;51680;49.806;18.774;2022-07-15T11:29:09;97637.31;;;28.19;38.05
41044;BME280;51680;49.806;18.774;2022-07-15T11:32:11;97647.41;;;28.10;38.02
41044;BME280;51680;49.806;18.774;2022-07-15T11:35:13;97642.44;;;28.01;38.64
41044;BME280;51680;49.806;18.774;2022-07-15T11:38:17;97645.59;;;27.77;38.22
41044;BME280;51680;49.806;18.774;2022-07-15T11:41:20;97648.88;;;27.72;39.20
41044;BME280;51680;49.806;18.774;2022-07-15T11:44:46;97639.59;;;27.75;38.99
41044;BME280;51680;49.806;18.774;2022-07-15T11:47:52;97644.41;;;27.79;38.22
41044;BME280;51680;49.806;18.774;2022-07-15T11:50:56;97650.19;;;27.83;38.30
41044;BME280;51680;49.806;18.774;2022-07-15T11:53:59;97648.13;;;27.85;38.76
41044;BME280;51680;49.806;18.774;2022-07-15T11:57:03;97634.88;;;27.77;38.39
41044;BME280;51680;49.806;18.774;2022-07-15T12:00:07;97639.19;;;27.78;38.15
41044;BME280;51680;49.806;18.774;2022-07-15T12:03:12;97636.59;;;27.84;38.53
41044;BME280;51680;49.806;18.774;2022-07-15T12:06:15;97639.06;;;27.86;38.66
41044;BME280;51680;49.806;18.774;2022-07-15T12:09:19;97637.59;;;27.83;38.49
41044;BME280;51680;49.806;18.774;2022-07-15T12:12:21;97641.50;;;27.81;38.84
41044;BME280;51680;49.806;18.774;2022-07-15T12:15:23;97631.97;;;27.72;38.25
41044;BME280;51680;49.806;18.774;2022-07-15T12:18:25;97654.19;;;27.66;38.62
41044;BME280;51680;49.806;18.774;2022-07-15T12:21:28;97644.06;;;27.61;38.35
41044;BME280;51680;49.806;18.774;2022-07-15T12:24:39;97642.13;;;27.49;38.37
41044;BME280;51680;49.806;18.774;2022-07-15T12:27:43;97645.34;;;27.38;38.67
41044;BME280;51680;49.806;18.774;2022-07-15T12:30:45;97637.84;;;27.27;38.54
41044;BME280;51680;49.806;18.774;2022-07-15T12:33:50;97651.53;;;27.11;38.97
41044;BME280;51680;49.806;18.774;2022-07-15T12:36:55;97652.34;;;27.11;39.55
41044;BME280;51680;49.806;18.774;2022-07-15T12:40:02;97646.69;;;27.21;38.87
41044;BME280;51680;49.806;18.774;2022-07-15T12:43:04;97643.53;;;27.17;38.67
41044;BME280;51680;49.806;18.774;2022-07-15T12:46:05;97642.66;;;27.31;39.03
41044;BME280;51680;49.806;18.774;2022-07-15T12:49:07;97637.75;;;27.41;38.92
41044;BME280;51680;49.806;18.774;2022-07-15T12:52:23;97643.94;;;27.42;38.19
41044;BME280;51680;49.806;18.774;2022-07-15T12:55:29;97637.06;;;27.33;37.61
41044;BME280;51680;49.806;18.774;2022-07-15T12:58:31;97638.19;;;27.17;38.83
41044;BME280;51680;49.806;18.774;2022-07-15T13:01:35;97630.72;;;27.13;38.29
41044;BME280;51680;49.806;18.774;2022-07-15T13:04:37;97633.00;;;27.16;39.20
41044;BME280;51680;49.806;18.774;2022-07-15T13:07:39;97626.47;;;27.18;38.58
41044;BME280;51680;49.806;18.774;2022-07-15T13:10:44;97622.94;;;27.18;38.41
41044;BME280;51680;49.806;18.774;2022-07-15T13:14:04;97626.63;;;27.17;38.78
41044;BME280;51680;49.806;18.774;2022-07-15T13:17:06;97624.31;;;27.14;38.78
41044;BME280;51680;49.806;18.774;2022-07-15T13:20:09;97626.38;;;27.12;39.30
41044;BME280;51680;49.806;18.774;2022-07-15T13:23:13;97621.84;;;27.12;38.56
41044;BME280;51680;49.806;18.774;2022-07-15T13:26:16;97627.41;;;27.11;38.73
41044;BME280;51680;49.806;18.774;2022-07-15T13:29:18;97623.88;;;27.10;38.72
41044;BME280;51680;49.806;18.774;2022-07-15T13:32:20;97625.28;;;27.06;38.23
41044;BME280;51680;49.806;18.774;2022-07-15T13:35:21;97628.94;;;26.99;38.52
41044;BME280;51680;49.806;18.774;2022-07-15T13:38:42;97640.88;;;26.96;39.35
41044;BME280;51680;49.806;18.774;2022-07-15T13:41:45;97635.47;;;26.90;39.13
41044;BME280;51680;49.806;18.774;2022-07-15T13:44:47;97636.66;;;26.81;38.98
41044;BME280;51680;49.806;18.774;2022-07-15T13:47:49;97634.28;;;26.71;39.19
41044;BME280;51680;49.806;18.774;2022-07-15T13:50:51;97641.50;;;26.71;39.12
41044;BME280;51680;49.806;18.774;2022-07-15T13:54:10;97640.34;;;26.80;39.81
41044;BME280;51680;49.806;18.774;2022-07-15T13:57:14;97632.16;;;26.88;39.26
41044;BME280;51680;49.806;18.774;2022-07-15T14:00:18;97632.28;;;26.80;39.38
41044;BME280;51680;49.806;18.774;2022-07-15T14:03:21;97624.50;;;26.85;38.89
41044;BME280;51680;49.806;18.774;2022-07-15T14:06:23;97627.00;;;26.86;39.37
41044;BME280;51680;49.806;18.774;2022-07-15T14:09:25;97635.63;;;26.82;38.94
41044;BME280;51680;49.806;18.774;2022-07-15T14:12:28;97624.16;;;26.67;38.84
41044;BME280;51680;49.806;18.774;2022-07-15T14:15:30;97627.34;;;26.56;38.57
41044;BME280;51680;49.806;18.774;2022-07-15T14:18:33;97627.44;;;26.48;38.55
41044;BME280;51680;49.806;18.774;2022-07-15T14:21:44;97620.94;;;26.36;38.97
41044;BME280;51680;49.806;18.774;2022-07-15T14:24:45;97619.03;;;26.30;39.09
41044;BME280;51680;49.806;18.774;2022-07-15T14:27:49;97618.09;;;26.23;38.91
41044;BME280;51680;49.806;18.774;2022-07-15T14:30:50;97617.22;;;26.16;38.97
41044;BME280;51680;49.806;18.774;2022-07-15T14:33:52;97616.59;;;26.14;39.48
41044;BME280;51680;49.806;18.774;2022-07-15T14:36:54;97615.38;;;26.16;39.02
41044;BME280;51680;49.806;18.774;2022-07-15T14:39:55;97613.50;;;26.17;38.92
41044;BME280;51680;49.806;18.774;2022-07-15T14:42:59;97614.44;;;26.24;39.50
41044;BME280;51680;49.806;18.774;2022-07-15T14:46:02;97602.31;;;26.28;38.56
41044;BME280;51680;49.806;18.774;2022-07-15T14:49:03;97611.94;;;26.22;38.35
41044;BME280;51680;49.806;18.774;2022-07-15T14:52:05;97604.59;;;26.10;38.65
41044;BME280;51680;49.806;18.774;2022-07-15T14:55:08;97614.31;;;25.96;38.40
41044;BME280;51680;49.806;18.774;2022-07-15T14:58:11;97617.09;;;25.88;39.09
41044;BME280;51680;49.806;18.774;2022-07-15T15:01:14;97619.50;;;25.83;38.95
41044;BME280;51680;49.806;18.774;2022-07-15T15:04:15;97624.00;;;25.83;38.86
41044;BME280;51680;49.806;18.774;2022-07-15T15:07:17;97625.38;;;25.79;38.68
41044;BME280;51680;49.806;18.774;2022-07-15T15:10:19;97623.16;;;25.82;39.11
41044;BME280;51680;49.806;18.774;2022-07-15T15:13:22;97620.38;;;25.90;38.41
41044;BME280;51680;49.806;18.774;2022-07-15T15:16:24;97620.31;;;25.98;38.90
41044;BME280;51680;49.806;18.774;2022-07-15T15:19:25;97631.91;;;26.05;39.08
41044;BME280;51680;49.806;18.774;2022-07-15T15:22:27;97626.38;;;26.07;39.15
41044;BME280;51680;49.806;18.774;2022-07-15T15:25:30;97617.31;;;26.08;38.69
41044;BME280;51680;49.806;18.774;2022-07-15T15:28:51;97622.22;;;26.04;38.66
41044;BME280;51680;49.806;18.774;2022-07-15T15:31:53;97633.94;;;25.89;39.53
41044;BME280;51680;49.806;18.774;2022-07-15T15:34:55;97630.94;;;25.92;39.25
41044;BME280;51680;49.806;18.774;2022-07-15T15:37:57;97619.38;;;25.91;38.66
41044;BME280;51680;49.806;18.774;2022-07-15T15:40:58;97623.25;;;25.89;38.68
41044;BME280;51680;49.806;18.774;2022-07-15T15:44:02;97625.28;;;25.87;38.26
41044;BME280;51680;49.806;18.774;2022-07-15T15:47:22;97628.44;;;25.76;38.09
41044;BME280;51680;49.806;18.774;2022-07-15T15:50:24;97619.75;;;25.74;38.21
41044;BME280;51680;49.806;18.774;2022-07-15T15:53:25;97615.34;;;25.66;37.58
41044;BME280;51680;49.806;18.774;2022-07-15T15:56:27;97630.69;;;25.58;38.39
41044;BME280;51680;49.806;18.774;2022-07-15T15:59:30;97631.22;;;25.53;38.44
41044;BME280;51680;49.806;18.774;2022-07-15T16:02:32;97631.16;;;25.47;39.08
41044;BME280;51680;49.806;18.774;2022-07-15T16:05:34;97631.69;;;25.42;38.88
41044;BME280;51680;49.806;18.774;2022-07-15T16:08:36;97626.25;;;25.36;39.48